Henderson, New York
Current Conditions -  °F | °C
As of 9:08 PM on Sunday 21 Dec 2014 (Local Time) from KART Reporting Station
Overcast Overcast  
Wind Chill: 22°   Ceiling: 2900
Heat Index: 28°   Visibility: 7mi
Dew Point: 20°   Wind: 6mph
Humidity: 72%   Direction: 60°ENE
Pressure: 30.34"   Gusts: NA
Location:  43.85°N, 76.18°W
Report Text: KART 220208Z AUTO 06005KT 7SM OVC029 M02/M07 A3034 RMK AO2 T10221067
Loading
Personal Weather Stations






























Interactive Weather Map New forecast layout! Learn more

10-Day Weather Forecast

Advertisements
Track Severe Weather on mobile